Asheboro, NC

5:29 PM EST on November 23, 2014 (GMT -0500)
KNCASHEB5 | Change Station
CLOSE
Current Station
Personal Weather Station
Location: Asheboro, NC
Elevation: 780 ft
Nearby Weather Stations

Elev 780 ft 35.63 °N, 79.76 °W | Updated 2 minutes ago

Rain
Rain
54.3 °F
Feels Like 54.3 °F
N
2.0
Wind Variable Wind from ESE

Today
High -- | Low -- °F
--% Chance of Precip.
Yesterday
High -- | Low -- °F
Precip. -- in
7:02 AM 5:08 PM
New Moon, 2% visible
Pressure 29.95 in
Visibility 7.0 miles
Clouds Overcast 500 ft
Dew Point 53 °F
Humidity 96%
Rainfall 0.03 in
Snow Depth Not available.
UV 0.0 out of 12
Pollen .30 out of 12
Air Quality Not available.
Flu Activity Not available.
METAR KHBI 232215Z AUTO 11005KT 7SM -RA OVC005 13/13 A2995 RMK AO2 P0001 T01250125

More Conditions Fewer Conditions

Pressure 29.95 in
Visibility 7.0 miles
Clouds Overcast 500 ft
Dew Point 53 °F
Humidity 96%
Rainfall 0.03 in
Snow Depth Not available.
UV 0.0 out of 12
Pollen .30 out of 12
Air Quality Not available.
Flu Activity Not available.
METAR KHBI 232215Z AUTO 11005KT 7SM -RA OVC005 13/13 A2995 RMK AO2 P0001 T01250125

More Conditions Fewer Conditions

10-Day Weather Forecast

Almanac

Astronomy

Nov. 23, 2014 Rise Set
Actual Time
Civil Twilight
Nautical Twilight
Astronomical Twilight
Moon
Length of Visible Light
Length of Day
Tomorrow will be .
, % of the Moon is Illuminated

Today's Extremes

State Highs State Lows

Community

WunderPhotos

Upload Photos

1,773,186 photos uploaded!

WunderBlogs® & News

Nearby

Air Quality

  Air Quality AQ Index Pollutant
Not available.

Snow Depth

Station Depth Elevation

Earthquake Activity

City Distance Mag. Time & Date
Minimum magnitude displayed is 2.5.

Coastal Water Temperatures

Place Temperature

Nearby Weather Stations